createdAt,value
2022-11-09T00:01:03.062Z,11.40
2022-11-09T00:06:06.194Z,11.30
2022-11-09T00:11:11.750Z,11.20
2022-11-09T00:16:19.018Z,11.20
2022-11-09T00:21:23.948Z,11.40
2022-11-09T00:26:27.142Z,11.30
2022-11-09T00:31:31.693Z,11.30
2022-11-09T00:36:34.855Z,11.20
2022-11-09T00:41:38.085Z,11.20
2022-11-09T00:46:42.545Z,11.30
2022-11-09T00:51:47.580Z,11.30
2022-11-09T00:56:50.874Z,11.30
2022-11-09T01:01:55.690Z,11.30
2022-11-09T01:06:59.094Z,11.20
2022-11-09T01:12:02.248Z,11.50
2022-11-09T01:17:06.920Z,11.50
2022-11-09T01:22:10.299Z,11.60
2022-11-09T01:27:13.547Z,11.40
2022-11-09T01:32:18.125Z,11.20
2022-11-09T01:37:21.323Z,11.10
2022-11-09T01:42:25.451Z,11.00
2022-11-09T01:47:30.443Z,11.00
2022-11-09T01:52:37.911Z,10.90
2022-11-09T01:57:47.107Z,11.10
2022-11-09T02:02:55.861Z,11.20
2022-11-09T02:08:01.844Z,11.10
2022-11-09T02:13:07.194Z,11.00
2022-11-09T02:18:15.230Z,10.70
2022-11-09T02:23:20.534Z,10.60
2022-11-09T02:28:26.326Z,10.40
2022-11-09T02:33:29.652Z,10.10
2022-11-09T02:38:34.323Z,10.00
2022-11-09T02:43:38.052Z,10.00
2022-11-09T02:48:42.457Z,10.20
2022-11-09T02:53:47.697Z,10.30
2022-11-09T02:58:51.019Z,10.50
2022-11-09T03:03:54.636Z,10.70
2022-11-09T03:08:59.177Z,10.60
2022-11-09T03:14:03.005Z,10.60
2022-11-09T03:19:07.672Z,10.60
2022-11-09T03:24:12.861Z,10.80
2022-11-09T03:29:17.340Z,10.60
2022-11-09T03:34:20.601Z,10.50
2022-11-09T03:39:25.289Z,10.50
2022-11-09T03:44:29.667Z,10.60
2022-11-09T03:49:32.771Z,11.00
2022-11-09T03:54:37.212Z,11.10
2022-11-09T03:59:40.423Z,11.40
2022-11-09T04:04:43.554Z,11.60
2022-11-09T04:09:48.030Z,11.50
2022-11-09T04:14:51.282Z,11.40
2022-11-09T04:19:54.456Z,11.30
2022-11-09T04:24:59.153Z,11.20
2022-11-09T04:30:02.260Z,10.90
2022-11-09T04:35:06.794Z,10.80
2022-11-09T04:40:12.684Z,10.70
2022-11-09T04:45:16.019Z,10.70
2022-11-09T04:50:19.235Z,10.60
2022-11-09T04:55:23.627Z,10.60
2022-11-09T05:00:27.232Z,10.50
2022-11-09T05:05:30.366Z,10.60
2022-11-09T05:10:35.374Z,10.60
2022-11-09T05:15:39.098Z,10.70
2022-11-09T05:20:42.235Z,10.90
2022-11-09T05:25:47.395Z,11.00
2022-11-09T05:30:50.520Z,11.00
2022-11-09T05:35:54.575Z,11.10
2022-11-09T05:40:59.064Z,11.20
2022-11-09T05:46:06.395Z,11.40
2022-11-09T05:51:12.098Z,11.50
2022-11-09T05:56:17.248Z,11.70
2022-11-09T06:01:20.530Z,11.50
2022-11-09T06:06:23.556Z,11.60
2022-11-09T06:11:29.207Z,11.70
2022-11-09T06:16:32.460Z,11.70
2022-11-09T06:21:35.549Z,11.70
2022-11-09T06:26:40.027Z,11.90
2022-11-09T06:31:43.315Z,11.90
2022-11-09T06:36:46.679Z,12.00
2022-11-09T06:41:51.216Z,12.10
2022-11-09T06:46:54.308Z,12.10
2022-11-09T06:51:57.402Z,12.00
2022-11-09T06:57:01.932Z,11.90
2022-11-09T07:02:05.047Z,11.80
2022-11-09T07:07:08.216Z,11.50
2022-11-09T07:12:12.940Z,11.40
2022-11-09T07:17:16.186Z,11.40
2022-11-09T07:22:19.986Z,11.30
2022-11-09T07:27:27.787Z,11.30
2022-11-09T07:33:02.574Z,11.30
2022-11-09T07:38:00.951Z,11.30
2022-11-09T07:43:06.562Z,11.30
2022-11-09T07:48:12.006Z,11.30
2022-11-09T07:53:16.336Z,11.30
2022-11-09T07:58:20.920Z,11.40
2022-11-09T08:03:24.990Z,11.50
2022-11-09T08:08:28.187Z,11.60
2022-11-09T08:13:32.917Z,11.70
2022-11-09T08:18:36.071Z,11.70
2022-11-09T08:23:39.492Z,11.60
2022-11-09T08:28:43.942Z,11.60
2022-11-09T08:33:47.031Z,11.80
2022-11-09T08:38:50.129Z,11.80
2022-11-09T08:43:54.652Z,12.00
2022-11-09T08:48:57.854Z,12.10
2022-11-09T08:54:01.053Z,12.10
2022-11-09T08:59:05.606Z,12.20
2022-11-09T09:04:08.671Z,12.20
2022-11-09T09:09:12.040Z,12.20
2022-11-09T09:14:16.501Z,12.20
2022-11-09T09:19:19.811Z,12.30
2022-11-09T09:24:25.238Z,12.30
2022-11-09T09:29:29.749Z,12.60
2022-11-09T09:34:33.010Z,12.80
2022-11-09T09:39:36.219Z,13.20
2022-11-09T09:44:45.317Z,13.50
2022-11-09T09:49:55.033Z,13.90
2022-11-09T09:55:05.134Z,13.90
2022-11-09T10:00:24.129Z,13.80
2022-11-09T10:05:39.605Z,13.70
2022-11-09T10:10:50.591Z,13.60
2022-11-09T10:16:01.515Z,13.50
2022-11-09T10:21:17.602Z,13.40
2022-11-09T10:26:27.548Z,13.70
2022-11-09T10:31:34.407Z,13.90
2022-11-09T10:36:43.749Z,14.00
2022-11-09T10:41:47.126Z,14.30
2022-11-09T10:47:12.862Z,14.40
2022-11-09T10:52:47.197Z,15.10
2022-11-09T10:58:15.764Z,14.70
2022-11-09T11:03:39.933Z,14.50
2022-11-09T11:09:15.687Z,14.60
2022-11-09T11:14:42.752Z,14.90
2022-11-09T11:20:27.763Z,15.00
2022-11-09T11:26:05.433Z,15.00
2022-11-09T11:31:27.003Z,15.00
2022-11-09T11:37:02.378Z,14.90
2022-11-09T11:42:51.681Z,15.30
2022-11-09T11:48:40.992Z,15.70
2022-11-09T11:54:14.055Z,15.70
2022-11-09T11:59:51.742Z,16.60
2022-11-09T12:05:40.520Z,17.40
2022-11-09T12:11:10.389Z,17.70
2022-11-09T12:16:40.431Z,18.00
2022-11-09T12:22:10.567Z,18.50
2022-11-09T12:27:47.592Z,18.40
2022-11-09T12:33:14.154Z,17.40
2022-11-09T12:38:42.088Z,16.90
2022-11-09T12:44:17.091Z,17.10
2022-11-09T12:49:40.977Z,17.70
2022-11-09T12:55:04.981Z,18.10
2022-11-09T13:00:47.925Z,18.50
2022-11-09T13:06:16.819Z,18.10
2022-11-09T13:11:40.622Z,17.60
2022-11-09T13:17:42.155Z,17.30
2022-11-09T13:23:41.593Z,17.00
2022-11-09T13:29:11.168Z,16.80
2022-11-09T13:34:42.074Z,16.30
2022-11-09T13:40:37.324Z,16.00
2022-11-09T13:46:00.954Z,15.80
2022-11-09T13:51:38.499Z,15.70
2022-11-09T13:57:03.425Z,15.70
2022-11-09T14:02:25.833Z,15.70
2022-11-09T14:07:48.590Z,15.40
2022-11-09T14:13:42.050Z,15.20
2022-11-09T14:19:13.628Z,14.90
2022-11-09T14:24:38.036Z,14.70
2022-11-09T14:30:03.707Z,14.50
2022-11-09T14:35:28.894Z,14.30
2022-11-09T14:40:53.503Z,14.10
2022-11-09T14:46:18.255Z,14.00
2022-11-09T14:51:40.591Z,13.80
2022-11-09T14:57:03.936Z,13.60
2022-11-09T15:02:26.204Z,13.40
2022-11-09T15:07:48.415Z,13.10
2022-11-09T15:13:11.561Z,12.90
2022-11-09T15:18:36.863Z,12.80
2022-11-09T15:24:04.626Z,12.70
2022-11-09T15:29:37.715Z,12.40
2022-11-09T15:34:59.780Z,12.30
2022-11-09T15:40:24.534Z,12.30
2022-11-09T15:45:47.595Z,12.00
2022-11-09T15:51:09.153Z,11.90
2022-11-09T15:56:30.782Z,11.70
2022-11-09T16:01:53.549Z,11.70
2022-11-09T16:07:16.631Z,11.40
2022-11-09T16:12:43.705Z,11.40
2022-11-09T16:18:09.136Z,11.50
2022-11-09T16:23:30.964Z,11.40
2022-11-09T16:28:54.838Z,11.50
2022-11-09T16:34:18.265Z,11.60
2022-11-09T16:39:40.161Z,11.60
2022-11-09T16:45:09.127Z,11.60
2022-11-09T16:50:32.371Z,11.70
2022-11-09T16:55:54.610Z,11.60
2022-11-09T17:01:19.275Z,12.00
2022-11-09T17:06:46.812Z,12.20
2022-11-09T17:12:08.900Z,12.10
2022-11-09T17:17:30.812Z,11.70
2022-11-09T17:22:54.286Z,11.50
2022-11-09T17:28:16.447Z,11.30
2022-11-09T17:33:38.327Z,11.20
2022-11-09T17:39:01.631Z,11.30
2022-11-09T17:44:23.399Z,11.50
2022-11-09T17:49:45.302Z,11.70
2022-11-09T17:55:08.832Z,11.60
2022-11-09T18:00:30.741Z,11.60
2022-11-09T18:05:52.700Z,11.50
2022-11-09T18:11:17.092Z,11.50
2022-11-09T18:16:38.919Z,12.20
2022-11-09T18:22:02.981Z,12.60
2022-11-09T18:27:30.287Z,12.70
2022-11-09T18:32:52.543Z,12.70
2022-11-09T18:38:15.640Z,12.50
2022-11-09T18:43:42.425Z,12.40
2022-11-09T18:49:07.928Z,12.30
2022-11-09T18:54:33.487Z,12.00
2022-11-09T18:59:56.422Z,11.60
2022-11-09T19:05:18.363Z,11.40
2022-11-09T19:10:40.122Z,11.30
2022-11-09T19:16:03.393Z,11.20
2022-11-09T19:21:35.736Z,11.00
2022-11-09T19:26:58.008Z,10.90
2022-11-09T19:32:21.475Z,10.70
2022-11-09T19:37:42.913Z,10.70
2022-11-09T19:43:04.463Z,10.50
2022-11-09T19:48:28.517Z,10.40
2022-11-09T19:53:51.335Z,10.30
2022-11-09T19:59:15.700Z,10.20
2022-11-09T20:04:38.676Z,10.20
2022-11-09T20:10:01.614Z,10.00
2022-11-09T20:15:23.729Z,9.90
2022-11-09T20:20:47.200Z,9.70
2022-11-09T20:26:11.504Z,9.60
2022-11-09T20:31:34.106Z,9.60
2022-11-09T20:36:57.244Z,9.50
2022-11-09T20:42:18.919Z,9.50
2022-11-09T20:48:05.255Z,9.50
2022-11-09T20:53:23.748Z,9.50
2022-11-09T20:58:45.673Z,9.40
2022-11-09T21:04:09.199Z,9.40
2022-11-09T21:09:32.585Z,9.60
2022-11-09T21:14:54.184Z,9.60
2022-11-09T21:20:16.936Z,9.60
2022-11-09T21:25:59.643Z,9.60
2022-11-09T21:31:22.720Z,9.50
2022-11-09T21:36:44.546Z,9.50
2022-11-09T21:42:07.753Z,9.60
2022-11-09T21:47:30.247Z,9.70
2022-11-09T21:52:51.949Z,9.90
2022-11-09T21:58:15.256Z,10.10
2022-11-09T22:03:38.279Z,10.20
2022-11-09T22:09:00.228Z,10.40
2022-11-09T22:14:42.166Z,10.50
2022-11-09T22:20:23.395Z,10.50
2022-11-09T22:25:48.115Z,10.60
2022-11-09T22:31:11.892Z,10.40
2022-11-09T22:36:33.494Z,10.40
2022-11-09T22:41:55.096Z,10.40
2022-11-09T22:47:17.967Z,10.20
2022-11-09T22:52:39.440Z,10.20
2022-11-09T22:58:00.906Z,10.20
2022-11-09T23:03:24.669Z,10.40
2022-11-09T23:08:47.515Z,10.40
2022-11-09T23:14:09.632Z,10.60
2022-11-09T23:19:32.903Z,10.70
2022-11-09T23:25:13.603Z,10.70
2022-11-09T23:30:35.877Z,10.60
2022-11-09T23:36:02.228Z,10.40
2022-11-09T23:41:23.996Z,10.40
2022-11-09T23:46:45.796Z,10.20
2022-11-09T23:52:09.121Z,9.90
2022-11-09T23:57:31.012Z,10.20
